Time;durP1;ratioP1;P1;durP2;ratioP2;P2;SDS_P1;SDS_P2;PMS_P1;PMS_P2;Temp;Humidity;BMP_temperature;BMP_pressure;BME280_temperature;BME280_humidity;BME280_pressure;Samples;Min_cycle;Max_cycle;Signal;HPM_P1;HPM_P2
2022/07/10 00:02:13;;;;;;;7.40;1.90;;;16.70;92.30;;;;;;4997103;28;88884;-68
2022/07/10 00:04:40;;;;;;;6.20;1.70;;;16.70;92.20;;;;;;4996936;28;87498;-68
2022/07/10 00:07:07;;;;;;;6.13;2.95;;;16.80;92.20;;;;;;4995920;28;89692;-68
2022/07/10 00:09:34;;;;;;;6.20;1.98;;;16.70;92.20;;;;;;4997198;28;88319;-68
2022/07/10 00:12:01;;;;;;;6.20;1.90;;;16.70;92.30;;;;;;4997000;28;89580;-68
2022/07/10 00:14:28;;;;;;;5.78;1.80;;;16.70;92.20;;;;;;4996879;28;89137;-68
2022/07/10 00:16:55;;;;;;;7.57;2.00;;;16.60;92.40;;;;;;4996050;28;88370;-68
2022/07/10 00:19:22;;;;;;;7.07;2.65;;;16.60;92.50;;;;;;4996613;28;88194;-68
2022/07/10 00:21:49;;;;;;;5.82;1.52;;;16.60;92.40;;;;;;4996989;28;88923;-68
2022/07/10 00:24:16;;;;;;;5.15;1.92;;;16.50;92.40;;;;;;4996859;28;88641;-68
2022/07/10 00:26:43;;;;;;;9.00;3.03;;;16.50;92.60;;;;;;4997106;28;88593;-68
2022/07/10 00:29:10;;;;;;;5.15;2.28;;;16.50;92.80;;;;;;4995948;28;89439;-68
2022/07/10 00:31:37;;;;;;;7.00;1.52;;;16.50;92.90;;;;;;4996862;28;88709;-68
2022/07/10 00:34:04;;;;;;;6.50;1.90;;;16.40;93.00;;;;;;4996643;28;103544;-68
2022/07/10 00:36:31;;;;;;;5.20;1.65;;;16.40;93.00;;;;;;4996646;28;89386;-68
2022/07/10 00:38:58;;;;;;;7.10;2.33;;;16.40;93.10;;;;;;5000300;28;88191;-69
2022/07/10 00:41:25;;;;;;;7.72;1.95;;;16.40;93.40;;;;;;5000147;28;88867;-68
2022/07/10 00:43:57;;;;;;;6.57;1.73;;;16.40;93.20;;;;;;5000399;28;87910;-68
2022/07/10 00:46:26;;;;;;;8.30;1.90;;;16.40;93.30;;;;;;4998990;28;88666;-68
2022/07/10 00:48:54;;;;;;;6.75;1.88;;;16.40;93.30;;;;;;5000133;28;88000;-68
2022/07/10 00:51:24;;;;;;;4.80;2.03;;;16.40;93.20;;;;;;4999201;28;88821;-68
2022/07/10 00:53:52;;;;;;;6.15;1.42;;;16.30;93.20;;;;;;5000833;28;89314;-68
2022/07/10 00:56:22;;;;;;;7.50;2.15;;;16.30;93.30;;;;;;4999024;28;87960;-68
2022/07/10 00:58:50;;;;;;;7.82;2.17;;;16.30;93.30;;;;;;5000191;28;88321;-68
2022/07/10 01:01:17;;;;;;;6.95;1.95;;;16.30;93.40;;;;;;4998088;28;89582;-68
2022/07/10 01:03:45;;;;;;;8.02;1.92;;;16.30;93.50;;;;;;5000114;28;89387;-68
2022/07/10 01:06:14;;;;;;;6.43;1.77;;;16.30;93.40;;;;;;5000238;28;88054;-68
2022/07/10 01:08:42;;;;;;;6.15;1.77;;;16.30;93.60;;;;;;4999731;28;88678;-68
2022/07/10 01:11:10;;;;;;;7.68;2.67;;;16.30;93.50;;;;;;5000478;28;87936;-68
2022/07/10 01:13:38;;;;;;;7.47;1.83;;;16.30;93.40;;;;;;4982015;28;89913;-68
2022/07/10 01:16:05;;;;;;;6.25;2.13;;;16.30;93.60;;;;;;5000325;28;88008;-68
2022/07/10 01:18:32;;;;;;;7.20;1.90;;;16.30;93.50;;;;;;4999089;28;90961;-68
2022/07/10 01:20:59;;;;;;;3.72;1.60;;;16.30;93.30;;;;;;5000235;28;88916;-68
2022/07/10 01:23:26;;;;;;;8.40;2.97;;;16.30;93.40;;;;;;4999530;28;103027;-68
2022/07/10 01:25:53;;;;;;;4.03;1.63;;;16.30;93.50;;;;;;4998490;28;89033;-68
2022/07/10 01:28:21;;;;;;;5.75;1.75;;;16.30;93.60;;;;;;4999934;28;88385;-68
2022/07/10 01:30:49;;;;;;;7.30;1.80;;;16.30;93.40;;;;;;4999900;28;88834;-68
2022/07/10 01:33:16;;;;;;;7.35;1.83;;;16.30;93.40;;;;;;4998648;28;88844;-68
2022/07/10 01:35:43;;;;;;;5.00;1.70;;;16.20;93.40;;;;;;4999729;28;88005;-68
2022/07/10 01:38:10;;;;;;;8.52;1.50;;;16.10;93.30;;;;;;5000034;28;88387;-68
2022/07/10 01:40:37;;;;;;;6.43;1.92;;;16.10;93.40;;;;;;4998295;28;88786;-68
2022/07/10 01:43:04;;;;;;;7.28;1.70;;;16.10;93.40;;;;;;5000269;28;88417;-68
2022/07/10 01:45:32;;;;;;;6.55;1.63;;;16.10;93.60;;;;;;4999578;28;88132;-68
2022/07/10 01:47:59;;;;;;;5.65;2.85;;;16.10;93.60;;;;;;4998469;28;89448;-68
2022/07/10 01:50:26;;;;;;;6.50;2.05;;;16.10;93.70;;;;;;4997115;28;90543;-68
2022/07/10 01:52:53;;;;;;;8.63;2.10;;;16.20;93.60;;;;;;4998233;28;89527;-68
2022/07/10 01:55:20;;;;;;;3.90;1.15;;;16.20;93.50;;;;;;4998418;28;88017;-68
2022/07/10 01:57:47;;;;;;;6.97;2.53;;;16.20;93.60;;;;;;4998159;28;90846;-68
2022/07/10 02:00:14;;;;;;;6.03;2.08;;;16.20;93.80;;;;;;4999102;28;101766;-68
2022/07/10 02:04:40;;;;;;;7.15;1.85;;;16.20;93.70;;;;;;4981360;28;88633;-68
2022/07/10 02:05:28;;;;;;;7.00;1.65;;;16.20;93.80;;;;;;4999422;28;87944;-68
2022/07/10 02:07:55;;;;;;;9.13;2.97;;;16.10;93.90;;;;;;4999565;28;88429;-68
2022/07/10 02:10:22;;;;;;;8.68;2.70;;;16.10;94.00;;;;;;4999277;28;88808;-68
2022/07/10 02:12:48;;;;;;;4.15;1.92;;;16.10;94.10;;;;;;4999175;28;88582;-68
2022/07/10 02:15:16;;;;;;;7.28;1.95;;;16.00;94.10;;;;;;4999304;28;88773;-68
2022/07/10 02:17:42;;;;;;;5.68;3.15;;;16.00;94.30;;;;;;4999290;28;88518;-68
2022/07/10 02:20:10;;;;;;;6.40;1.85;;;16.00;94.30;;;;;;4997519;28;91314;-68
2022/07/10 02:22:37;;;;;;;8.68;2.75;;;16.00;94.40;;;;;;4997677;28;89728;-68
2022/07/10 02:25:05;;;;;;;10.27;1.65;;;16.00;94.60;;;;;;4998005;28;88693;-68
2022/07/10 02:27:32;;;;;;;7.90;2.67;;;16.00;94.60;;;;;;4999028;28;88416;-68
2022/07/10 02:29:59;;;;;;;7.18;2.30;;;16.00;94.50;;;;;;4998838;28;88798;-68
2022/07/10 02:32:26;;;;;;;5.10;2.00;;;15.90;94.70;;;;;;4981028;28;101617;-68
2022/07/10 02:34:53;;;;;;;5.78;1.73;;;15.90;94.70;;;;;;4997438;28;89447;-68
2022/07/10 02:37:20;;;;;;;8.73;2.10;;;15.90;94.70;;;;;;4981165;28;88386;-68
2022/07/10 02:39:47;;;;;;;6.45;2.15;;;15.90;94.80;;;;;;4996937;28;90601;-68
2022/07/10 02:42:13;;;;;;;6.65;1.58;;;15.80;94.80;;;;;;4998782;28;89433;-68
2022/07/10 02:44:40;;;;;;;8.20;1.38;;;15.80;94.80;;;;;;4998695;28;88476;-68
2022/07/10 02:47:07;;;;;;;8.10;3.17;;;15.80;94.90;;;;;;4998778;28;88042;-68
2022/07/10 02:49:34;;;;;;;9.50;2.63;;;15.90;94.80;;;;;;4997511;28;88757;-68
2022/07/10 02:52:01;;;;;;;6.20;1.80;;;15.90;94.70;;;;;;4996997;28;89882;-68
2022/07/10 02:54:28;;;;;;;8.63;2.05;;;15.90;94.60;;;;;;4998909;28;88425;-68
2022/07/10 02:56:55;;;;;;;5.05;2.63;;;15.90;94.50;;;;;;4997232;28;93649;-68
2022/07/10 02:59:22;;;;;;;5.90;2.13;;;15.90;94.30;;;;;;4980848;28;88121;-68
2022/07/10 03:01:49;;;;;;;8.52;2.20;;;15.80;94.60;;;;;;4995503;28;89002;-68
2022/07/10 03:04:16;;;;;;;3.55;1.35;;;15.80;94.40;;;;;;4998241;28;88770;-68
2022/07/10 03:06:43;;;;;;;6.15;1.75;;;15.70;94.50;;;;;;4997089;28;91147;-68
2022/07/10 03:09:10;;;;;;;6.80;2.97;;;15.70;94.60;;;;;;4997321;28;89906;-68
2022/07/10 03:11:37;;;;;;;6.20;2.00;;;15.60;94.60;;;;;;4996859;28;98889;-68
2022/07/10 03:14:05;;;;;;;5.75;2.10;;;15.60;94.80;;;;;;4998383;28;88023;-68
2022/07/10 03:16:32;;;;;;;4.82;2.08;;;15.60;94.90;;;;;;4997355;28;88367;-68
2022/07/10 03:18:59;;;;;;;4.45;1.75;;;15.50;94.80;;;;;;4997005;28;89795;-68
2022/07/10 03:21:26;;;;;;;6.90;1.38;;;15.50;94.90;;;;;;4998905;28;88577;-68
2022/07/10 03:23:53;;;;;;;5.07;2.88;;;15.50;94.90;;;;;;4998614;28;88390;-68
2022/07/10 03:26:20;;;;;;;5.50;2.13;;;15.40;94.80;;;;;;4997133;28;88319;-68
2022/07/10 03:28:47;;;;;;;4.03;1.92;;;15.40;94.90;;;;;;4996232;28;92266;-68
2022/07/10 03:31:14;;;;;;;9.00;2.30;;;15.40;94.90;;;;;;4997028;28;88228;-68
2022/07/10 03:33:40;;;;;;;6.05;1.13;;;15.30;94.90;;;;;;4996917;28;89395;-68
2022/07/10 03:36:07;;;;;;;5.63;2.72;;;15.20;95.00;;;;;;4998247;28;88080;-68
2022/07/10 03:38:34;;;;;;;5.78;2.50;;;15.20;94.90;;;;;;4998335;28;88738;-68
2022/07/10 03:41:01;;;;;;;7.35;1.35;;;15.20;95.00;;;;;;4980113;28;91159;-68
2022/07/10 03:43:28;;;;;;;5.38;1.20;;;15.20;94.90;;;;;;4980386;28;88137;-68
2022/07/10 03:45:57;;;;;;;5.72;1.40;;;15.10;94.90;;;;;;4997196;28;88368;-68
2022/07/10 03:48:24;;;;;;;6.82;1.48;;;15.10;94.80;;;;;;4998030;28;88863;-68
2022/07/10 03:50:51;;;;;;;4.63;1.20;;;15.10;94.90;;;;;;4996551;28;89084;-68
2022/07/10 03:53:18;;;;;;;5.88;2.67;;;15.10;94.80;;;;;;4997645;28;88777;-68
2022/07/10 03:55:46;;;;;;;8.43;1.45;;;15.10;94.80;;;;;;4998082;28;88062;-68
2022/07/10 03:58:12;;;;;;;8.98;1.92;;;15.10;94.70;;;;;;4980147;28;88936;-68
2022/07/10 04:00:42;;;;;;;6.57;2.88;;;15.10;94.70;;;;;;4998313;28;88556;-68
2022/07/10 04:03:09;;;;;;;5.75;1.70;;;15.10;94.60;;;;;;4995777;28;88047;-68
2022/07/10 04:05:36;;;;;;;5.78;2.38;;;15.10;94.50;;;;;;4996751;28;90853;-68
2022/07/10 04:08:04;;;;;;;7.53;2.78;;;15.20;94.50;;;;;;4997706;28;88738;-68
2022/07/10 04:10:31;;;;;;;8.90;1.80;;;15.20;94.50;;;;;;4997813;28;88465;-68
2022/07/10 04:12:58;;;;;;;8.02;2.88;;;15.20;94.50;;;;;;4997513;28;88055;-68
2022/07/10 04:15:26;;;;;;;6.25;2.22;;;15.20;94.40;;;;;;4997688;28;99175;-68
2022/07/10 04:17:53;;;;;;;6.20;2.03;;;15.20;94.50;;;;;;4995825;28;89478;-68
2022/07/10 04:20:21;;;;;;;7.20;1.80;;;15.30;94.50;;;;;;4997797;28;89364;-68
2022/07/10 04:22:49;;;;;;;6.18;2.42;;;15.50;94.30;;;;;;4997624;28;87954;-68
2022/07/10 04:25:16;;;;;;;10.70;1.80;;;15.60;94.20;;;;;;4996054;28;90851;-68
2022/07/10 04:27:43;;;;;;;5.13;2.45;;;15.80;94.00;;;;;;4997637;28;88888;-68
2022/07/10 04:30:10;;;;;;;7.00;1.70;;;16.00;93.90;;;;;;4995876;28;91278;-68
2022/07/10 04:32:37;;;;;;;5.53;1.95;;;16.10;93.60;;;;;;4997542;28;88034;-68
2022/07/10 04:35:04;;;;;;;5.93;1.65;;;16.30;93.50;;;;;;4996406;28;88383;-68
2022/07/10 04:37:31;;;;;;;5.93;2.70;;;16.40;93.20;;;;;;4996324;28;88840;-68
2022/07/10 04:39:58;;;;;;;4.15;1.60;;;16.40;93.30;;;;;;4996995;28;88528;-69
2022/07/10 04:42:25;;;;;;;4.65;1.20;;;16.50;93.40;;;;;;4996902;28;92092;-68
2022/07/10 04:44:53;;;;;;;6.63;1.38;;;16.60;93.30;;;;;;4979981;28;88312;-68
2022/07/10 04:47:20;;;;;;;5.07;1.20;;;16.60;93.20;;;;;;4995896;28;91309;-68
2022/07/10 04:49:46;;;;;;;7.90;2.67;;;16.70;93.20;;;;;;4997209;28;88615;-68
2022/07/10 04:52:13;;;;;;;6.45;1.27;;;16.70;93.20;;;;;;4995561;28;89675;-68
2022/07/10 04:54:40;;;;;;;8.63;1.60;;;16.80;93.00;;;;;;4979424;28;98376;-68
2022/07/10 04:57:07;;;;;;;5.60;2.65;;;16.90;92.90;;;;;;4997077;28;88898;-68
2022/07/10 04:59:34;;;;;;;7.43;2.78;;;17.00;92.90;;;;;;4979691;28;88680;-68
2022/07/10 05:02:01;;;;;;;6.95;2.58;;;17.20;92.90;;;;;;4996873;28;87961;-68
2022/07/10 05:04:28;;;;;;;7.10;2.28;;;17.30;92.80;;;;;;4995708;28;91207;-68
2022/07/10 05:06:55;;;;;;;7.13;3.75;;;17.50;92.70;;;;;;4996824;28;89491;-68
2022/07/10 05:09:22;;;;;;;10.80;2.80;;;17.60;92.60;;;;;;4979481;28;89442;-68
2022/07/10 05:11:49;;;;;;;7.47;2.58;;;17.60;92.40;;;;;;4997061;28;87947;-68
2022/07/10 05:14:16;;;;;;;5.47;1.90;;;17.70;92.30;;;;;;4995551;28;88382;-68
2022/07/10 05:16:43;;;;;;;8.20;3.83;;;17.70;92.40;;;;;;4979617;28;91346;-68
2022/07/10 05:19:10;;;;;;;6.68;2.95;;;17.80;92.30;;;;;;4995431;28;88082;-68
2022/07/10 05:21:37;;;;;;;10.82;2.85;;;17.80;92.30;;;;;;4995920;28;88064;-68
2022/07/10 05:24:04;;;;;;;4.95;1.52;;;17.90;92.10;;;;;;4980213;28;91278;-68
2022/07/10 05:26:31;;;;;;;8.45;3.25;;;17.90;92.20;;;;;;4998875;28;89761;-68
2022/07/10 05:28:58;;;;;;;6.97;3.03;;;17.90;92.10;;;;;;5000289;28;88532;-68
2022/07/10 05:31:25;;;;;;;8.65;3.28;;;17.70;92.10;;;;;;4998434;28;89377;-68
2022/07/10 05:33:52;;;;;;;8.93;2.25;;;17.60;92.40;;;;;;4998511;28;96134;-68
2022/07/10 05:36:18;;;;;;;9.77;2.53;;;17.60;92.70;;;;;;4982029;28;91866;-68
2022/07/10 05:38:46;;;;;;;10.35;2.95;;;17.50;92.80;;;;;;5000137;28;88668;-68
2022/07/10 05:41:12;;;;;;;5.70;2.50;;;17.50;93.00;;;;;;4999815;28;88006;-68
2022/07/10 05:43:39;;;;;;;9.88;2.60;;;17.50;93.10;;;;;;5000211;28;88337;-68
2022/07/10 05:46:06;;;;;;;9.43;1.92;;;17.50;93.10;;;;;;4981838;28;91809;-68
2022/07/10 05:48:34;;;;;;;5.70;1.80;;;17.60;93.10;;;;;;5000074;28;93770;-68
2022/07/10 05:51:01;;;;;;;8.27;2.75;;;17.60;93.10;;;;;;4981786;28;89818;-68
2022/07/10 05:53:47;;;;;;;9.05;2.70;;;17.60;93.30;;;;;;5000000;28;88432;-68
2022/07/10 05:56:14;;;;;;;8.82;2.05;;;17.60;93.20;;;;;;4999234;28;89405;-68
2022/07/10 05:58:41;;;;;;;6.78;3.70;;;17.70;93.30;;;;;;4999903;28;89405;-68
2022/07/10 06:01:08;;;;;;;7.63;2.80;;;17.70;93.20;;;;;;4998169;28;89480;-68
2022/07/10 06:03:36;;;;;;;8.88;2.25;;;17.80;93.10;;;;;;4999155;28;101345;-68
2022/07/10 06:06:03;;;;;;;10.75;2.05;;;17.80;93.10;;;;;;4999693;28;88078;-68
2022/07/10 06:08:29;;;;;;;8.10;3.05;;;17.80;93.10;;;;;;4999575;28;88575;-68
2022/07/10 06:10:56;;;;;;;9.32;2.75;;;17.90;93.00;;;;;;4998077;28;89482;-68
2022/07/10 06:13:23;;;;;;;9.07;2.45;;;17.90;93.00;;;;;;4999700;28;88383;-68
2022/07/10 06:15:50;;;;;;;5.85;1.90;;;18.00;92.90;;;;;;4998377;28;88952;-68
2022/07/10 06:18:17;;;;;;;6.63;3.33;;;18.00;92.90;;;;;;4999368;28;88536;-68
2022/07/10 06:20:44;;;;;;;8.95;2.65;;;18.00;92.90;;;;;;4999178;28;88775;-68
2022/07/10 06:23:11;;;;;;;7.47;2.30;;;18.00;92.60;;;;;;4997450;28;102230;-68
2022/07/10 06:25:38;;;;;;;8.90;1.95;;;18.10;92.60;;;;;;5015077;28;88861;-69
2022/07/10 06:28:05;;;;;;;8.13;3.35;;;18.20;92.30;;;;;;4999321;28;88470;-68
2022/07/10 06:30:32;;;;;;;5.95;2.35;;;18.20;92.30;;;;;;4997821;28;87999;-68
2022/07/10 06:32:59;;;;;;;8.38;2.65;;;18.30;92.20;;;;;;4999207;28;88193;-68
2022/07/10 06:35:26;;;;;;;6.32;1.90;;;18.40;92.30;;;;;;4997514;28;91583;-68
2022/07/10 06:37:52;;;;;;;5.32;1.30;;;18.40;92.10;;;;;;4998323;28;87801;-68
2022/07/10 06:40:20;;;;;;;5.35;2.95;;;18.50;92.30;;;;;;4980933;28;89541;-68
2022/07/10 06:42:47;;;;;;;7.68;2.17;;;18.50;92.10;;;;;;4997745;28;88358;-68
2022/07/10 06:45:18;;;;;;;6.28;1.90;;;18.50;92.20;;;;;;4981019;28;91468;-68
2022/07/10 06:47:58;;;;;;;4.93;1.95;;;18.30;92.00;;;;;;4999175;28;89404;-68
2022/07/10 06:50:26;;;;;;;5.72;2.30;;;18.30;92.20;;;;;;4997207;28;89813;-68
2022/07/10 06:52:54;;;;;;;6.97;2.85;;;18.30;92.70;;;;;;4998870;28;88525;-68
2022/07/10 06:55:21;;;;;;;4.97;2.60;;;18.30;92.50;;;;;;4997369;28;88924;-68
2022/07/10 06:57:48;;;;;;;5.90;1.75;;;18.40;92.30;;;;;;4998784;28;90786;-68
2022/07/10 07:00:15;;;;;;;5.80;2.45;;;18.40;92.40;;;;;;4997069;28;89556;-68
2022/07/10 07:02:42;;;;;;;7.18;4.07;;;18.50;92.60;;;;;;4997038;28;99715;-68
2022/07/10 07:05:10;;;;;;;6.18;2.22;;;18.50;93.00;;;;;;4997568;28;87971;-68
2022/07/10 07:07:37;;;;;;;9.15;1.50;;;18.40;95.00;;;;;;4980505;28;91437;-68
2022/07/10 07:10:05;;;;;;;12.20;3.75;;;18.20;95.80;;;;;;4996757;28;89315;-68
2022/07/10 07:12:32;;;;;;;6.05;1.95;;;18.10;95.70;;;;;;4998457;28;88338;-68
2022/07/10 07:14:59;;;;;;;7.28;2.00;;;18.10;95.80;;;;;;4997084;28;91616;-68
2022/07/10 07:17:33;;;;;;;6.20;2.90;;;18.20;95.70;;;;;;4998416;28;88546;-68
2022/07/10 07:25:33;;;;;;;6.53;1.95;;;19.00;94.70;;;;;;4996850;28;91503;-68
2022/07/10 07:28:00;;;;;;;7.22;2.83;;;19.20;93.80;;;;;;4998827;28;90021;-68
2022/07/10 07:30:27;;;;;;;8.18;2.85;;;19.20;93.80;;;;;;4996735;28;88054;-68
2022/07/10 07:32:54;;;;;;;4.40;1.98;;;19.30;94.00;;;;;;4998426;28;88342;-68
2022/07/10 07:35:21;;;;;;;5.10;3.38;;;19.20;94.30;;;;;;4997815;28;89624;-68
2022/07/10 07:37:49;;;;;;;4.65;2.03;;;19.20;94.50;;;;;;4998275;28;89291;-68
2022/07/10 07:40:25;;;;;;;7.68;1.65;;;19.30;94.70;;;;;;4980490;28;89554;-68
2022/07/10 07:42:53;;;;;;;3.40;1.90;;;19.30;94.50;;;;;;4998295;28;88353;-68
2022/07/10 07:45:24;;;;;;;4.70;2.50;;;19.40;94.50;;;;;;4996548;28;91280;-68
2022/07/10 07:47:54;;;;;;;5.75;2.78;;;19.50;94.10;;;;;;4997595;28;88042;-68
2022/07/10 07:50:25;;;;;;;6.78;1.70;;;19.70;94.00;;;;;;4996805;28;88159;-68
2022/07/10 07:52:53;;;;;;;5.40;2.95;;;19.80;93.40;;;;;;4997244;28;88515;-68
2022/07/10 07:55:21;;;;;;;6.07;2.33;;;20.00;93.10;;;;;;4996092;28;98844;-68
2022/07/10 07:57:53;;;;;;;6.90;3.50;;;20.30;92.80;;;;;;4996724;28;88666;-68
2022/07/10 08:00:22;;;;;;;7.00;2.78;;;20.70;92.20;;;;;;4997244;28;88647;-68
2022/07/10 08:02:51;;;;;;;7.15;1.65;;;20.90;91.70;;;;;;4997330;28;89904;-68
2022/07/10 08:05:18;;;;;;;4.40;1.77;;;21.00;91.50;;;;;;4980046;28;89687;-68
2022/07/10 08:07:48;;;;;;;5.55;1.92;;;21.20;91.20;;;;;;4998129;28;88594;-68
2022/07/10 08:10:17;;;;;;;4.75;1.17;;;21.40;90.90;;;;;;4996414;28;90034;-68
2022/07/10 08:12:46;;;;;;;4.32;2.53;;;21.50;90.50;;;;;;4997564;28;88304;-68
2022/07/10 08:15:15;;;;;;;5.82;1.40;;;21.50;90.40;;;;;;4996512;28;88615;-68
2022/07/10 08:17:43;;;;;;;6.18;1.50;;;21.50;90.40;;;;;;4996261;28;94385;-68
2022/07/10 08:20:13;;;;;;;3.78;2.65;;;21.50;90.20;;;;;;4997873;28;88367;-68
2022/07/10 08:22:41;;;;;;;5.07;1.73;;;21.50;89.40;;;;;;4997497;28;88268;-68
2022/07/10 08:25:08;;;;;;;3.20;2.47;;;21.30;89.90;;;;;;4979513;28;89580;-68
2022/07/10 08:27:36;;;;;;;5.00;1.65;;;21.20;90.00;;;;;;5012784;28;92247;-68
2022/07/10 08:30:05;;;;;;;3.45;2.33;;;21.10;90.00;;;;;;4996664;28;88211;-68
2022/07/10 08:32:32;;;;;;;7.00;4.13;;;21.00;90.00;;;;;;4997158;28;88236;-68
2022/07/10 08:34:59;;;;;;;4.65;1.67;;;21.00;90.00;;;;;;4996219;28;88946;-68
2022/07/10 08:37:26;;;;;;;5.75;3.05;;;20.90;90.10;;;;;;4996085;28;88609;-68
2022/07/10 08:39:53;;;;;;;4.38;2.17;;;20.80;90.30;;;;;;4979774;28;89333;-68
2022/07/10 08:42:21;;;;;;;3.78;1.42;;;20.70;90.20;;;;;;4996414;28;90911;-69
2022/07/10 08:44:48;;;;;;;3.70;3.35;;;20.60;90.30;;;;;;4979404;28;91624;-68
2022/07/10 08:47:20;;;;;;;4.45;2.60;;;20.60;90.50;;;;;;4997363;28;88248;-68
2022/07/10 08:49:47;;;;;;;7.07;3.25;;;20.60;90.50;;;;;;4996965;28;88781;-68
2022/07/10 08:52:38;;;;;;;2.38;1.00;;;20.70;90.60;;;;;;4995738;28;91335;-68
2022/07/10 08:55:05;;;;;;;3.30;1.05;;;20.80;90.30;;;;;;4996000;28;91281;-68
2022/07/10 08:57:34;;;;;;;3.50;2.15;;;20.70;90.50;;;;;;4997111;28;88470;-68
2022/07/10 09:00:01;;;;;;;4.53;1.38;;;20.50;91.40;;;;;;4998050;28;88004;-68
2022/07/10 09:02:28;;;;;;;4.28;2.60;;;20.30;92.60;;;;;;5000360;28;88480;-68
2022/07/10 09:04:55;;;;;;;4.07;2.03;;;19.90;94.20;;;;;;4999514;28;88760;-68
2022/07/10 09:07:23;;;;;;;3.30;1.50;;;19.60;95.40;;;;;;5000865;28;88692;-68
2022/07/10 09:09:57;;;;;;;2.15;1.00;;;19.60;95.70;;;;;;5000258;28;87954;-68
2022/07/10 09:12:25;;;;;;;1.25;0.70;;;19.60;96.00;;;;;;5000581;28;88606;-68
2022/07/10 09:14:52;;;;;;;2.25;1.25;;;19.60;95.30;;;;;;4998292;28;92179;-68
2022/07/10 09:17:19;;;;;;;4.47;2.28;;;19.60;95.10;;;;;;4998828;28;91806;-68
2022/07/10 09:19:46;;;;;;;2.90;1.60;;;19.70;94.70;;;;;;5000143;28;88080;-68
2022/07/10 09:22:17;;;;;;;1.00;0.70;;;19.80;94.80;;;;;;5000728;28;88500;-68
2022/07/10 09:24:45;;;;;;;1.73;0.80;;;20.10;94.60;;;;;;4999043;28;88842;-68
2022/07/10 09:27:15;;;;;;;2.17;1.95;;;20.30;94.00;;;;;;4999950;28;88036;-68
2022/07/10 09:29:47;;;;;;;2.55;2.05;;;20.50;93.70;;;;;;5000140;28;87913;-68
2022/07/10 09:32:16;;;;;;;1.38;0.65;;;20.60;93.20;;;;;;5000675;28;87390;-68
2022/07/10 09:34:48;;;;;;;2.63;2.42;;;20.80;93.20;;;;;;5000006;28;88849;-68
2022/07/10 09:37:26;;;;;;;2.00;1.83;;;20.80;92.50;;;;;;5000180;28;88689;-68
2022/07/10 09:39:57;;;;;;;2.55;0.95;;;21.00;92.40;;;;;;4998386;28;89345;-68
2022/07/10 09:42:39;;;;;;;1.48;0.90;;;21.10;91.80;;;;;;4998756;28;89487;-68
2022/07/10 09:45:13;;;;;;;4.13;2.67;;;21.20;91.70;;;;;;5000284;28;88740;-68
2022/07/10 09:48:00;;;;;;;1.92;1.10;;;21.60;91.60;;;;;;4999846;28;88662;-68
2022/07/10 09:50:33;;;;;;;2.65;0.88;;;21.90;91.00;;;;;;4998803;28;87997;-68
2022/07/10 09:53:05;;;;;;;2.58;1.88;;;21.80;90.30;;;;;;4998674;28;88439;-69
2022/07/10 09:55:34;;;;;;;4.05;1.17;;;21.90;90.30;;;;;;4999743;28;88895;-69
2022/07/10 09:58:02;;;;;;;4.50;1.40;;;21.70;90.40;;;;;;5000294;28;88223;-68
2022/07/10 10:00:30;;;;;;;2.97;1.17;;;21.70;90.50;;;;;;4999332;28;95385;-68
2022/07/10 10:03:03;;;;;;;5.68;2.35;;;21.60;90.60;;;;;;4999535;28;88346;-68
2022/07/10 10:05:43;;;;;;;2.85;1.10;;;21.60;90.30;;;;;;4999615;28;89378;-69
2022/07/10 10:08:28;;;;;;;2.28;1.75;;;21.70;90.20;;;;;;4998514;28;89369;-68
2022/07/10 10:10:59;;;;;;;2.60;0.93;;;21.60;90.20;;;;;;4997476;28;89512;-68
2022/07/10 10:13:27;;;;;;;3.83;2.22;;;21.50;90.60;;;;;;4998179;28;90927;-68
2022/07/10 10:15:55;;;;;;;1.10;0.75;;;21.30;92.50;;;;;;4999262;28;88968;-68
2022/07/10 10:18:24;;;;;;;4.75;2.53;;;21.20;92.00;;;;;;4998322;28;88064;-68
2022/07/10 10:20:53;;;;;;;3.13;0.80;;;21.10;92.00;;;;;;4999115;28;87920;-68
2022/07/10 10:23:25;;;;;;;1.42;1.23;;;21.10;91.90;;;;;;4999516;28;88138;-68
2022/07/10 10:25:56;;;;;;;3.22;1.38;;;21.00;91.70;;;;;;4999181;28;88754;-68
2022/07/10 10:28:25;;;;;;;1.25;0.70;;;21.10;92.20;;;;;;4999572;28;88703;-68
2022/07/10 10:30:55;;;;;;;4.32;1.52;;;21.10;91.80;;;;;;4998556;28;88751;-68
2022/07/10 10:33:31;;;;;;;4.07;2.03;;;21.00;91.90;;;;;;4999252;28;88428;-68
2022/07/10 10:36:03;;;;;;;3.88;1.45;;;20.80;92.70;;;;;;4998859;28;92272;-68
2022/07/10 10:38:48;;;;;;;3.10;1.52;;;20.60;93.90;;;;;;4999248;28;88585;-68
2022/07/10 10:41:39;;;;;;;2.33;1.85;;;20.50;94.40;;;;;;4998155;28;88074;-68
2022/07/10 10:44:10;;;;;;;2.45;2.28;;;20.30;96.40;;;;;;4997703;28;88307;-68
2022/07/10 10:46:50;;;;;;;1.77;1.60;;;20.20;96.30;;;;;;4999200;28;88520;-68
2022/07/10 10:49:20;;;;;;;2.50;2.30;;;20.20;96.30;;;;;;4999389;28;88603;-68
2022/07/10 10:52:01;;;;;;;2.35;2.25;;;20.10;96.30;;;;;;4981619;28;88110;-68
2022/07/10 10:54:57;;;;;;;2.60;2.50;;;20.20;96.70;;;;;;4999295;28;88496;-68
2022/07/10 10:57:47;;;;;;;2.20;2.08;;;20.30;96.00;;;;;;4998635;28;89349;-68
2022/07/10 11:00:29;;;;;;;2.55;2.03;;;20.50;95.30;;;;;;4999271;28;89451;-68
2022/07/10 11:03:14;;;;;;;2.08;1.73;;;20.90;94.80;;;;;;4998211;28;89990;-68
2022/07/10 11:05:42;;;;;;;2.85;2.58;;;21.30;93.70;;;;;;4999005;28;88380;-68
2022/07/10 11:08:10;;;;;;;2.90;1.55;;;21.50;93.70;;;;;;4997044;28;92071;-69
2022/07/10 11:10:37;;;;;;;2.72;2.53;;;21.70;93.00;;;;;;4998663;28;88061;-68
2022/07/10 11:13:08;;;;;;;2.25;2.05;;;21.70;92.50;;;;;;4996895;28;90568;-69
2022/07/10 11:15:42;;;;;;;2.05;1.95;;;21.70;92.60;;;;;;4997766;28;88422;-68
2022/07/10 11:18:10;;;;;;;;;;;21.50;94.20;;;;;;4997313;28;91468;-68
2022/07/10 11:20:44;;;;;;;2.70;2.50;;;21.10;94.60;;;;;;4998520;28;88731;-69
2022/07/10 11:23:29;;;;;;;3.38;2.67;;;21.00;94.10;;;;;;4997576;28;89233;-68
2022/07/10 11:26:14;;;;;;;3.20;1.17;;;21.20;93.70;;;;;;4997080;28;88447;-69
2022/07/10 11:28:43;;;;;;;3.47;1.40;;;21.30;93.40;;;;;;4997363;28;88799;-68
2022/07/10 11:31:11;;;;;;;2.53;2.33;;;21.50;93.00;;;;;;4997985;28;89565;-68
2022/07/10 11:33:43;;;;;;;3.38;2.00;;;21.60;92.30;;;;;;4998254;28;88029;-68
2022/07/10 11:36:16;;;;;;;2.70;1.60;;;21.80;92.20;;;;;;4998175;28;88489;-69
2022/07/10 11:38:44;;;;;;;2.13;1.83;;;21.80;92.10;;;;;;4998441;28;88911;-68
2022/07/10 11:41:23;;;;;;;4.95;2.08;;;21.60;92.30;;;;;;4998163;28;96716;-68
2022/07/10 11:43:57;;;;;;;4.10;2.50;;;21.60;92.10;;;;;;4996920;28;89475;-68
2022/07/10 11:46:29;;;;;;;3.28;2.97;;;21.40;92.70;;;;;;4996835;28;89460;-68
2022/07/10 11:48:57;;;;;;;2.30;2.10;;;21.10;93.70;;;;;;4997718;28;89594;-68
2022/07/10 11:51:30;;;;;;;5.50;2.10;;;20.70;95.10;;;;;;4997806;28;91682;-68
2022/07/10 11:54:04;;;;;;;3.67;1.77;;;20.60;95.80;;;;;;5013324;28;88071;-69
2022/07/10 11:56:33;;;;;;;3.20;1.88;;;20.50;95.50;;;;;;4997922;28;88431;-68
2022/07/10 11:59:04;;;;;;;6.18;2.95;;;20.30;95.50;;;;;;4997341;28;88626;-68
2022/07/10 12:01:40;;;;;;;4.55;2.15;;;20.30;96.40;;;;;;4997346;28;88651;-68
2022/07/10 12:04:09;;;;;;;3.58;2.35;;;20.30;95.80;;;;;;4981086;28;89300;-68
2022/07/10 12:06:39;;;;;;;4.05;1.50;;;20.30;95.90;;;;;;4998021;28;87496;-68
2022/07/10 12:09:07;;;;;;;4.47;3.40;;;20.50;95.80;;;;;;5000930;28;88932;-68
2022/07/10 12:11:36;;;;;;;4.00;1.95;;;20.90;95.50;;;;;;5013015;28;91135;-68
2022/07/10 12:14:17;;;;;;;7.90;2.92;;;21.20;94.40;;;;;;4997024;28;88755;-69
2022/07/10 12:16:49;;;;;;;6.25;2.65;;;21.70;94.00;;;;;;4996379;28;91120;-68
2022/07/10 12:19:18;;;;;;;3.43;1.77;;;21.90;93.60;;;;;;4997588;28;88860;-68
2022/07/10 12:21:46;;;;;;;2.83;1.60;;;22.00;92.50;;;;;;4979703;28;91144;-68
2022/07/10 12:24:16;;;;;;;5.82;2.13;;;22.00;92.70;;;;;;4996018;28;88041;-68
2022/07/10 12:26:44;;;;;;;5.82;2.20;;;22.10;92.70;;;;;;4997467;28;88429;-68
2022/07/10 12:29:21;;;;;;;4.97;2.10;;;22.00;92.90;;;;;;4997121;28;88724;-68
2022/07/10 12:31:50;;;;;;;3.65;1.70;;;22.10;93.00;;;;;;4997901;28;88676;-68
2022/07/10 12:34:18;;;;;;;4.47;2.13;;;21.80;93.10;;;;;;4998836;28;88503;-68
2022/07/10 12:36:45;;;;;;;4.53;3.78;;;21.60;93.50;;;;;;4999435;28;89453;-68
2022/07/10 12:39:14;;;;;;;3.17;1.90;;;21.40;93.70;;;;;;4998760;28;90760;-68
2022/07/10 12:42:01;;;;;;;4.93;3.05;;;21.20;94.60;;;;;;5000519;28;91817;-68
2022/07/10 12:44:40;;;;;;;5.40;4.55;;;21.00;94.50;;;;;;4999683;28;89660;-69
2022/07/10 12:47:12;;;;;;;4.15;3.38;;;21.00;95.30;;;;;;5000721;28;88397;-68
2022/07/10 12:50:03;;;;;;;3.90;1.88;;;20.90;95.40;;;;;;4999409;28;91249;-68
2022/07/10 12:52:33;;;;;;;16.65;12.77;;;21.00;94.80;;;;;;4999598;28;88608;-68
2022/07/10 12:55:06;;;;;;;14.98;8.02;;;21.00;95.10;;;;;;4998718;28;89002;-68
2022/07/10 12:57:52;;;;;;;2.88;1.88;;;21.00;94.60;;;;;;4999604;28;91081;-68
2022/07/10 13:00:34;;;;;;;2.97;2.05;;;20.80;95.30;;;;;;5000592;28;88745;-68
2022/07/10 13:03:02;;;;;;;3.00;1.67;;;20.70;95.40;;;;;;5000531;28;89129;-68